createdAt,value
2019-01-23T00:03:01.364Z,20.05
2019-01-23T00:05:30.289Z,23.32
2019-01-23T00:07:59.355Z,21.37
2019-01-23T00:10:28.042Z,19.70
2019-01-23T00:12:56.700Z,20.88
2019-01-23T00:15:25.399Z,18.82
2019-01-23T00:17:54.205Z,21.62
2019-01-23T00:20:22.845Z,24.12
2019-01-23T00:22:51.545Z,20.85
2019-01-23T00:25:20.287Z,23.55
2019-01-23T00:27:48.921Z,19.75
2019-01-23T00:30:17.669Z,19.07
2019-01-23T00:32:46.295Z,22.27
2019-01-23T00:35:15.043Z,21.25
2019-01-23T00:37:43.765Z,20.88
2019-01-23T00:40:12.600Z,19.92
2019-01-23T00:42:41.293Z,20.30
2019-01-23T00:45:10.816Z,20.77
2019-01-23T00:47:39.475Z,22.00
2019-01-23T00:50:08.841Z,19.95
2019-01-23T00:52:37.551Z,19.35
2019-01-23T00:55:08.134Z,19.77
2019-01-23T00:57:36.839Z,21.15
2019-01-23T01:00:46.206Z,20.00
2019-01-23T01:03:14.926Z,19.60
2019-01-23T01:05:43.652Z,18.40
2019-01-23T01:08:31.499Z,19.07
2019-01-23T01:11:00.204Z,19.45
2019-01-23T01:13:28.937Z,19.98
2019-01-23T01:15:57.631Z,18.32
2019-01-23T01:18:26.344Z,19.60
2019-01-23T01:20:55.053Z,18.90
2019-01-23T01:23:23.745Z,18.57
2019-01-23T01:25:52.381Z,19.02
2019-01-23T01:28:21.065Z,18.98
2019-01-23T01:30:49.720Z,21.25
2019-01-23T01:33:18.362Z,17.90
2019-01-23T01:35:47.136Z,18.23
2019-01-23T01:38:15.780Z,20.35
2019-01-23T01:40:44.408Z,20.65
2019-01-23T01:43:13.154Z,18.60
2019-01-23T01:45:41.791Z,20.55
2019-01-23T01:48:10.458Z,21.73
2019-01-23T01:50:39.079Z,20.77
2019-01-23T01:53:07.855Z,19.35
2019-01-23T01:55:36.521Z,20.27
2019-01-23T01:58:25.967Z,20.72
2019-01-23T02:00:54.635Z,19.75
2019-01-23T02:03:23.395Z,19.60
2019-01-23T02:05:52.045Z,19.07
2019-01-23T02:08:20.743Z,20.95
2019-01-23T02:10:49.436Z,22.62
2019-01-23T02:13:18.141Z,21.57
2019-01-23T02:15:46.771Z,21.77
2019-01-23T02:18:15.423Z,19.42
2019-01-23T02:20:44.175Z,21.00
2019-01-23T02:23:12.802Z,19.17
2019-01-23T02:25:41.490Z,20.25
2019-01-23T02:28:10.137Z,19.17
2019-01-23T02:30:38.760Z,22.90
2019-01-23T02:33:07.436Z,20.30
2019-01-23T02:35:36.044Z,19.65
2019-01-23T02:38:04.742Z,19.82
2019-01-23T02:40:33.506Z,19.17
2019-01-23T02:43:02.170Z,22.50
2019-01-23T02:45:30.825Z,20.80
2019-01-23T02:47:59.611Z,20.60
2019-01-23T02:50:28.250Z,19.65
2019-01-23T02:52:56.955Z,18.40
2019-01-23T02:55:25.606Z,18.15
2019-01-23T02:57:54.229Z,19.85
2019-01-23T03:00:22.870Z,17.87
2019-01-23T03:02:51.641Z,20.20
2019-01-23T03:05:21.243Z,19.90
2019-01-23T03:07:49.891Z,20.48
2019-01-23T03:13:33.532Z,19.62
2019-01-23T03:16:02.236Z,19.85
2019-01-23T03:18:30.874Z,22.82
2019-01-23T03:20:59.502Z,18.77
2019-01-23T03:23:28.214Z,18.50
2019-01-23T03:25:56.832Z,21.17
2019-01-23T03:28:25.547Z,20.97
2019-01-23T03:30:54.136Z,19.87
2019-01-23T03:33:22.792Z,19.32
2019-01-23T03:35:51.416Z,19.35
2019-01-23T03:38:20.028Z,17.87
2019-01-23T03:40:48.671Z,21.62
2019-01-23T03:43:17.392Z,19.98
2019-01-23T03:45:46.016Z,23.15
2019-01-23T03:48:14.657Z,18.65
2019-01-23T03:50:43.294Z,21.12
2019-01-23T03:53:11.973Z,18.52
2019-01-23T03:55:40.672Z,22.35
2019-01-23T03:58:09.359Z,20.40
2019-01-23T04:00:38.046Z,17.05
2019-01-23T04:03:06.784Z,20.68
2019-01-23T04:05:35.385Z,19.57
2019-01-23T04:08:04.192Z,19.10
2019-01-23T04:13:46.757Z,17.57
2019-01-23T04:16:15.479Z,20.50
2019-01-23T04:18:44.138Z,20.52
2019-01-23T04:21:12.894Z,19.52
2019-01-23T04:23:41.571Z,19.17
2019-01-23T04:26:10.181Z,21.15
2019-01-23T04:28:38.880Z,20.32
2019-01-23T04:31:09.001Z,21.80
2019-01-23T04:33:37.916Z,20.95
2019-01-23T04:36:06.562Z,20.90
2019-01-23T04:38:35.169Z,21.05
2019-01-23T04:41:03.886Z,21.65
2019-01-23T04:43:32.535Z,21.45
2019-01-23T04:46:01.154Z,20.17
2019-01-23T04:51:03.832Z,20.08
2019-01-23T04:53:36.307Z,21.25
2019-01-23T04:56:44.722Z,20.62
2019-01-23T04:59:13.435Z,18.95
2019-01-23T05:01:42.067Z,20.65
2019-01-23T05:04:10.822Z,20.92
2019-01-23T05:06:39.461Z,21.52
2019-01-23T05:09:09.160Z,21.12
2019-01-23T05:11:37.804Z,19.87
2019-01-23T05:14:06.560Z,19.85
2019-01-23T05:16:35.324Z,23.02
2019-01-23T05:19:04.137Z,19.50
2019-01-23T05:21:32.784Z,20.60
2019-01-23T05:24:01.501Z,21.70
2019-01-23T05:26:30.147Z,19.75
2019-01-23T05:28:58.761Z,18.73
2019-01-23T05:31:27.488Z,19.75
2019-01-23T05:33:56.156Z,19.15
2019-01-23T05:36:24.791Z,20.02
2019-01-23T05:38:53.518Z,18.57
2019-01-23T05:41:22.240Z,21.70
2019-01-23T05:43:50.895Z,19.70
2019-01-23T05:46:19.627Z,20.88
2019-01-23T05:51:35.995Z,21.73
2019-01-23T05:54:23.842Z,19.60
2019-01-23T05:56:52.451Z,21.50
2019-01-23T05:59:21.140Z,22.00
2019-01-23T06:01:49.910Z,20.50
2019-01-23T06:04:18.476Z,19.10
2019-01-23T06:06:47.197Z,21.85
2019-01-23T06:09:15.816Z,22.00
2019-01-23T06:11:44.457Z,20.65
2019-01-23T06:14:13.095Z,20.48
2019-01-23T06:16:41.906Z,22.20
2019-01-23T06:19:10.598Z,22.82
2019-01-23T06:21:39.273Z,21.48
2019-01-23T06:24:07.888Z,21.07
2019-01-23T06:26:36.643Z,23.20
2019-01-23T06:29:05.486Z,23.20
2019-01-23T06:31:34.319Z,23.80
2019-01-23T06:34:02.956Z,21.17
2019-01-23T06:36:31.597Z,22.25
2019-01-23T06:39:00.303Z,23.52
2019-01-23T06:41:29.162Z,22.50
2019-01-23T06:43:57.774Z,23.35
2019-01-23T06:46:26.432Z,25.35
2019-01-23T06:48:55.211Z,22.65
2019-01-23T06:51:23.899Z,24.75
2019-01-23T06:53:52.595Z,23.55
2019-01-23T06:56:21.254Z,23.15
2019-01-23T06:58:49.905Z,25.08
2019-01-23T07:01:18.610Z,24.23
2019-01-23T07:03:47.314Z,24.23
2019-01-23T07:06:16.159Z,28.05
2019-01-23T07:08:44.951Z,24.67
2019-01-23T07:11:13.639Z,25.60
2019-01-23T07:13:42.382Z,24.05
2019-01-23T07:16:10.997Z,25.27
2019-01-23T07:18:39.630Z,24.87
2019-01-23T07:21:08.267Z,26.57
2019-01-23T07:23:36.938Z,22.73
2019-01-23T07:26:05.601Z,23.77
2019-01-23T07:28:34.269Z,23.75
2019-01-23T07:31:02.911Z,23.32
2019-01-23T07:33:31.575Z,23.05
2019-01-23T07:36:00.235Z,21.77
2019-01-23T07:38:28.870Z,24.15
2019-01-23T07:40:57.521Z,19.70
2019-01-23T07:43:26.299Z,20.20
2019-01-23T07:45:55.041Z,23.05
2019-01-23T07:48:23.677Z,19.67
2019-01-23T07:50:52.293Z,20.05
2019-01-23T07:53:21.005Z,21.80
2019-01-23T07:55:49.637Z,21.10
2019-01-23T07:58:18.316Z,19.17
2019-01-23T08:00:46.927Z,20.48
2019-01-23T08:03:15.571Z,19.87
2019-01-23T08:05:44.268Z,20.80
2019-01-23T08:11:07.865Z,18.32
2019-01-23T08:13:36.505Z,18.98
2019-01-23T08:16:05.291Z,19.90
2019-01-23T08:18:33.925Z,20.90
2019-01-23T08:21:02.591Z,20.32
2019-01-23T08:23:31.227Z,20.68
2019-01-23T08:25:59.863Z,20.72
2019-01-23T08:28:28.582Z,21.33
2019-01-23T08:30:57.263Z,22.40
2019-01-23T08:33:25.929Z,20.80
2019-01-23T08:35:54.627Z,23.90
2019-01-23T08:38:23.332Z,23.05
2019-01-23T08:40:51.967Z,23.45
2019-01-23T08:43:20.656Z,21.60
2019-01-23T08:45:49.292Z,21.70
2019-01-23T08:48:17.922Z,22.48
2019-01-23T08:50:46.691Z,21.35
2019-01-23T08:53:15.412Z,20.85
2019-01-23T08:55:44.050Z,22.87
2019-01-23T08:58:12.750Z,21.35
2019-01-23T09:00:45.770Z,21.68
2019-01-23T09:03:11.773Z,20.90
2019-01-23T09:05:40.503Z,21.02
2019-01-23T09:08:09.330Z,22.82
2019-01-23T09:10:38.002Z,21.75
2019-01-23T09:13:06.693Z,21.45
2019-01-23T09:15:35.351Z,20.82
2019-01-23T09:18:04.269Z,22.13
2019-01-23T09:20:32.908Z,20.65
2019-01-23T09:23:01.538Z,21.10
2019-01-23T09:25:30.357Z,22.02
2019-01-23T09:27:58.972Z,22.65
2019-01-23T09:30:52.566Z,21.17
2019-01-23T09:33:41.756Z,22.90
2019-01-23T09:36:32.017Z,19.90
2019-01-23T09:39:39.170Z,23.12
2019-01-23T09:42:46.269Z,21.52
2019-01-23T09:45:53.375Z,23.32
2019-01-23T09:48:48.419Z,20.70
2019-01-23T09:51:55.539Z,21.68
2019-01-23T09:54:24.300Z,20.90
2019-01-23T09:56:52.906Z,21.35
2019-01-23T09:59:21.603Z,22.27
2019-01-23T10:01:50.357Z,22.10
2019-01-23T10:04:18.940Z,22.93
2019-01-23T10:06:47.603Z,24.60
2019-01-23T10:09:16.214Z,20.65
2019-01-23T10:11:44.962Z,21.70
2019-01-23T10:14:13.581Z,23.87
2019-01-23T10:16:42.214Z,26.95
2019-01-23T10:19:10.858Z,22.93
2019-01-23T10:21:39.627Z,24.00
2019-01-23T10:24:08.288Z,23.83
2019-01-23T10:26:56.198Z,23.07
2019-01-23T10:29:24.903Z,23.40
2019-01-23T10:31:53.551Z,22.37
2019-01-23T10:34:22.157Z,25.52
2019-01-23T10:36:50.793Z,24.00
2019-01-23T10:39:19.429Z,22.10
2019-01-23T10:41:48.096Z,24.25
2019-01-23T10:44:16.709Z,22.77
2019-01-23T10:46:45.413Z,21.93
2019-01-23T10:49:14.030Z,21.45
2019-01-23T10:51:42.722Z,25.32
2019-01-23T10:54:11.413Z,22.17
2019-01-23T10:56:40.229Z,25.30
2019-01-23T10:59:08.930Z,23.55
2019-01-23T11:01:37.605Z,23.27
2019-01-23T11:04:06.362Z,25.02
2019-01-23T11:06:35.062Z,25.43
2019-01-23T11:09:24.931Z,24.67
2019-01-23T11:11:53.572Z,23.80
2019-01-23T11:14:22.222Z,21.87
2019-01-23T11:16:50.904Z,25.45
2019-01-23T11:19:19.570Z,25.55
2019-01-23T11:21:48.198Z,25.12
2019-01-23T11:24:16.850Z,26.60
2019-01-23T11:26:45.692Z,25.82
2019-01-23T11:29:14.303Z,26.55
2019-01-23T11:31:43.107Z,24.60
2019-01-23T11:34:11.831Z,24.07
2019-01-23T11:36:40.605Z,26.23
2019-01-23T11:39:10.227Z,25.65
2019-01-23T11:41:39.001Z,25.62
2019-01-23T11:44:07.683Z,25.55
2019-01-23T11:46:36.294Z,24.02
2019-01-23T11:49:04.996Z,31.95
2019-01-23T11:51:33.735Z,24.87
2019-01-23T11:54:02.431Z,25.20
2019-01-23T11:56:31.148Z,23.75
2019-01-23T11:58:59.773Z,22.00
2019-01-23T12:01:28.466Z,25.52
2019-01-23T12:03:57.121Z,25.15
2019-01-23T12:06:25.752Z,27.37
2019-01-23T12:08:54.491Z,24.45
2019-01-23T12:11:23.216Z,24.35
2019-01-23T12:13:51.983Z,23.77
2019-01-23T12:16:20.615Z,23.83
2019-01-23T12:19:10.061Z,25.95
2019-01-23T12:21:38.676Z,24.18
2019-01-23T12:24:07.319Z,24.72
2019-01-23T12:26:35.948Z,25.45
2019-01-23T12:29:44.390Z,24.98
2019-01-23T12:32:12.993Z,25.30
2019-01-23T12:34:41.721Z,29.25
2019-01-23T12:37:10.340Z,30.45
2019-01-23T12:39:39.116Z,24.82
2019-01-23T12:42:07.815Z,24.10
2019-01-23T12:44:36.556Z,24.18
2019-01-23T12:47:05.248Z,24.50
2019-01-23T12:49:33.913Z,24.32
2019-01-23T12:52:02.700Z,22.77
2019-01-23T12:54:31.474Z,21.40
2019-01-23T12:57:00.180Z,22.55
2019-01-23T12:59:28.798Z,22.42
2019-01-23T13:01:57.500Z,24.85
2019-01-23T13:04:26.199Z,24.10
2019-01-23T13:06:54.838Z,27.27
2019-01-23T13:09:23.476Z,28.32
2019-01-23T13:11:52.164Z,22.73
2019-01-23T13:14:20.789Z,23.92
2019-01-23T13:19:47.244Z,23.98
2019-01-23T13:22:15.846Z,22.15
2019-01-23T13:25:04.151Z,25.43
2019-01-23T13:27:32.774Z,24.90
2019-01-23T13:30:01.427Z,24.98
2019-01-23T13:32:30.028Z,24.82
2019-01-23T13:34:58.679Z,24.23
2019-01-23T13:37:27.296Z,24.40
2019-01-23T13:39:55.950Z,21.93
2019-01-23T13:42:24.595Z,21.02
2019-01-23T13:44:53.330Z,22.58
2019-01-23T13:47:22.084Z,21.82
2019-01-23T13:49:50.801Z,22.80
2019-01-23T13:52:19.619Z,21.75
2019-01-23T13:54:48.262Z,20.17
2019-01-23T13:57:16.936Z,21.93
2019-01-23T13:59:45.583Z,21.48
2019-01-23T14:02:14.201Z,23.40
2019-01-23T14:04:42.919Z,25.65
2019-01-23T14:07:11.571Z,28.35
2019-01-23T14:09:40.204Z,21.20
2019-01-23T14:12:09.002Z,23.57
2019-01-23T14:14:37.649Z,21.20
2019-01-23T14:17:06.384Z,25.62
2019-01-23T14:19:35.015Z,24.85
2019-01-23T14:22:03.693Z,23.22
2019-01-23T14:24:32.316Z,19.17
2019-01-23T14:27:01.304Z,23.07
2019-01-23T14:29:30.063Z,21.35
2019-01-23T14:32:03.236Z,21.45
2019-01-23T14:34:29.161Z,21.05
2019-01-23T14:36:57.866Z,21.62
2019-01-23T14:39:26.515Z,21.45
2019-01-23T14:41:55.172Z,26.50
2019-01-23T14:44:23.785Z,21.62
2019-01-23T14:46:54.525Z,22.90
2019-01-23T14:49:23.282Z,23.60
2019-01-23T14:51:54.811Z,24.23
2019-01-23T14:54:23.479Z,21.80
2019-01-23T14:56:52.126Z,24.67
2019-01-23T14:59:40.047Z,21.10
2019-01-23T15:02:10.363Z,25.08
2019-01-23T15:04:39.553Z,25.00
2019-01-23T15:07:08.201Z,21.87
2019-01-23T15:09:36.998Z,22.40
2019-01-23T15:12:05.910Z,20.65
2019-01-23T15:14:34.574Z,21.10
2019-01-23T15:17:03.265Z,22.65
2019-01-23T15:19:51.111Z,19.42
2019-01-23T15:22:19.758Z,23.80
2019-01-23T15:24:48.767Z,20.92
2019-01-23T15:27:17.474Z,23.90
2019-01-23T15:29:46.188Z,23.62
2019-01-23T15:32:17.343Z,20.15
2019-01-23T15:34:45.886Z,24.43
2019-01-23T15:37:14.638Z,22.25
2019-01-23T15:39:43.316Z,20.90
2019-01-23T15:42:11.975Z,21.70
2019-01-23T15:44:40.626Z,23.75
2019-01-23T15:47:09.362Z,27.05
2019-01-23T15:49:37.981Z,38.20
2019-01-23T15:52:06.605Z,37.40
2019-01-23T15:54:35.310Z,29.77
2019-01-23T15:57:03.955Z,43.58
2019-01-23T15:59:32.595Z,36.45
2019-01-23T16:02:01.304Z,25.97
2019-01-23T16:04:29.933Z,25.70
2019-01-23T16:06:58.661Z,22.13
2019-01-23T16:09:27.377Z,23.75
2019-01-23T16:11:55.996Z,30.55
2019-01-23T16:14:26.560Z,42.58
2019-01-23T16:16:55.168Z,47.58
2019-01-23T16:19:23.875Z,26.05
2019-01-23T16:21:52.484Z,29.85
2019-01-23T16:24:21.673Z,34.20
2019-01-23T16:27:10.110Z,28.83
2019-01-23T16:29:39.988Z,24.67
2019-01-23T16:32:09.754Z,24.70
2019-01-23T16:37:30.989Z,25.43
2019-01-23T16:40:00.211Z,52.70
2019-01-23T16:42:30.291Z,44.20
2019-01-23T16:50:51.825Z,26.02
2019-01-23T16:53:23.263Z,31.33
2019-01-23T16:55:53.159Z,30.17
2019-01-23T16:58:23.341Z,29.70
2019-01-23T17:04:21.820Z,26.93
2019-01-23T17:09:46.125Z,21.52
2019-01-23T17:12:14.785Z,21.77
2019-01-23T17:14:43.424Z,20.72
2019-01-23T17:17:12.109Z,38.23
2019-01-23T17:19:40.807Z,42.48
2019-01-23T17:22:11.308Z,29.15
2019-01-23T17:24:39.958Z,27.93
2019-01-23T17:27:08.842Z,37.60
2019-01-23T17:29:38.645Z,30.65
2019-01-23T17:32:07.822Z,32.40
2019-01-23T17:34:36.672Z,23.95
2019-01-23T17:45:58.098Z,21.35
2019-01-23T17:48:27.064Z,23.83
2019-01-23T17:50:56.247Z,20.52
2019-01-23T17:53:25.556Z,21.93
2019-01-23T17:55:54.461Z,23.30
2019-01-23T17:58:23.201Z,25.20
2019-01-23T18:01:11.973Z,24.27
2019-01-23T18:03:43.015Z,18.73
2019-01-23T18:06:11.834Z,21.97
2019-01-23T18:08:40.762Z,21.77
2019-01-23T18:11:09.711Z,21.23
2019-01-23T18:13:58.145Z,20.43
2019-01-23T18:16:26.907Z,24.55
2019-01-23T18:19:22.485Z,29.92
2019-01-23T18:21:54.882Z,25.17
2019-01-23T18:24:42.929Z,25.45
2019-01-23T18:29:57.522Z,25.10
2019-01-23T18:32:28.980Z,31.12
2019-01-23T18:35:20.419Z,24.90
2019-01-23T18:38:28.126Z,24.32
2019-01-23T18:41:35.291Z,27.52
2019-01-23T18:48:01.380Z,23.18
2019-01-23T18:51:08.600Z,28.60
2019-01-23T18:59:38.113Z,27.07
2019-01-23T19:05:44.805Z,24.00
2019-01-23T19:14:34.361Z,19.17
2019-01-23T19:17:03.707Z,21.37
2019-01-23T19:19:32.717Z,22.85
2019-01-23T19:22:01.700Z,27.82
2019-01-23T19:24:30.519Z,25.17
2019-01-23T19:26:59.525Z,23.95
2019-01-23T19:29:28.311Z,26.17
2019-01-23T19:32:16.337Z,25.30
2019-01-23T19:37:48.553Z,23.10
2019-01-23T19:40:57.248Z,23.38
2019-01-23T19:43:25.989Z,22.70
2019-01-23T19:45:55.658Z,23.15
2019-01-23T19:48:24.469Z,23.10
2019-01-23T19:51:10.577Z,25.23
2019-01-23T19:53:39.402Z,24.00
2019-01-23T19:56:08.785Z,22.58
2019-01-23T19:58:39.361Z,24.05
2019-01-23T20:01:27.419Z,22.22
2019-01-23T20:03:57.032Z,23.00
2019-01-23T20:06:26.003Z,24.20
2019-01-23T20:14:19.228Z,23.30
2019-01-23T20:16:50.053Z,22.45
2019-01-23T20:19:38.246Z,23.60
2019-01-23T20:22:07.369Z,23.02
2019-01-23T20:24:55.377Z,28.12
2019-01-23T20:27:24.395Z,24.65
2019-01-23T20:29:57.411Z,25.62
2019-01-23T20:32:46.899Z,27.30
2019-01-23T20:35:45.420Z,31.65
2019-01-23T20:38:14.284Z,26.93
2019-01-23T20:41:02.969Z,25.00
2019-01-23T20:43:31.951Z,23.60
2019-01-23T20:46:01.258Z,23.35
2019-01-23T20:48:49.146Z,24.47
2019-01-23T20:51:20.817Z,22.90
2019-01-23T20:59:44.951Z,23.05
2019-01-23T21:02:14.613Z,22.40
2019-01-23T21:05:04.145Z,23.22
2019-01-23T21:07:53.567Z,23.52
2019-01-23T21:12:50.267Z,22.93
2019-01-23T21:15:21.861Z,23.25
2019-01-23T21:17:51.584Z,24.30
2019-01-23T21:23:38.312Z,21.25
2019-01-23T21:26:07.330Z,21.23
2019-01-23T21:31:45.225Z,23.98
2019-01-23T21:37:25.458Z,22.77
2019-01-23T21:39:54.168Z,22.52
2019-01-23T21:42:25.424Z,23.75
2019-01-23T21:45:14.250Z,23.45
2019-01-23T21:47:44.739Z,23.07
2019-01-23T21:50:21.233Z,21.25
2019-01-23T21:52:50.765Z,21.42
2019-01-23T21:58:22.582Z,24.07
2019-01-23T22:01:12.038Z,24.92
2019-01-23T22:04:20.561Z,22.50
2019-01-23T22:06:49.402Z,24.05
2019-01-23T22:09:37.958Z,24.47
2019-01-23T22:15:12.208Z,24.12
2019-01-23T22:17:40.898Z,23.67
2019-01-23T22:20:13.063Z,25.57
2019-01-23T22:22:43.549Z,24.45
2019-01-23T22:27:53.237Z,24.32
2019-01-23T22:30:41.491Z,29.92
2019-01-23T22:36:02.816Z,26.97
2019-01-23T22:38:31.424Z,27.52
2019-01-23T22:41:00.148Z,23.25
2019-01-23T22:43:28.776Z,24.32
2019-01-23T22:45:57.420Z,26.40
2019-01-23T22:48:26.152Z,26.90
2019-01-23T22:50:54.801Z,24.27
2019-01-23T22:53:23.525Z,26.35
2019-01-23T22:55:52.154Z,30.68
2019-01-23T22:58:20.764Z,28.32
2019-01-23T23:01:27.875Z,25.00
2019-01-23T23:04:02.933Z,23.95
2019-01-23T23:06:27.413Z,25.30
2019-01-23T23:08:56.144Z,26.68
2019-01-23T23:11:24.850Z,26.20
2019-01-23T23:13:53.498Z,25.50
2019-01-23T23:16:22.248Z,23.05
2019-01-23T23:19:10.083Z,26.00
2019-01-23T23:21:38.734Z,25.88
2019-01-23T23:24:07.428Z,24.25
2019-01-23T23:26:36.142Z,23.10
2019-01-23T23:29:04.953Z,23.50
2019-01-23T23:31:33.695Z,25.50
2019-01-23T23:34:02.409Z,24.85
2019-01-23T23:36:31.039Z,23.50
2019-01-23T23:38:59.678Z,25.60
2019-01-23T23:41:28.334Z,25.65
2019-01-23T23:43:57.010Z,25.35
2019-01-23T23:46:25.712Z,25.32
2019-01-23T23:48:54.471Z,27.32
2019-01-23T23:51:23.097Z,27.95
2019-01-23T23:53:51.751Z,30.43
2019-01-23T23:56:20.465Z,27.95
2019-01-23T23:58:49.126Z,26.45
